createdAt,value
2024-02-22T00:00:53.868Z,34.36
2024-02-22T00:01:53.891Z,34.36
2024-02-22T00:02:53.853Z,34.37
2024-02-22T00:03:53.851Z,34.35
2024-02-22T00:04:54.077Z,34.37
2024-02-22T00:05:53.905Z,34.37
2024-02-22T00:06:53.975Z,34.36
2024-02-22T00:07:53.913Z,34.37
2024-02-22T00:08:53.939Z,34.37
2024-02-22T00:09:53.858Z,34.37
2024-02-22T00:10:54.020Z,34.36
2024-02-22T00:11:53.947Z,34.38
2024-02-22T00:12:53.860Z,34.37
2024-02-22T00:13:53.921Z,34.37
2024-02-22T00:14:53.877Z,34.37
2024-02-22T00:15:53.892Z,34.38
2024-02-22T00:16:54.043Z,34.37
2024-02-22T00:17:53.986Z,34.38
2024-02-22T00:18:53.884Z,34.38
2024-02-22T00:19:54.525Z,34.39
2024-02-22T00:20:53.916Z,34.39
2024-02-22T00:21:53.903Z,34.37
2024-02-22T00:22:53.962Z,34.38
2024-02-22T00:23:53.988Z,34.39
2024-02-22T00:24:54.055Z,34.39
2024-02-22T00:25:54.155Z,34.37
2024-02-22T00:26:54.166Z,34.36
2024-02-22T00:27:54.210Z,34.39
2024-02-22T00:28:54.358Z,34.36
2024-02-22T00:29:54.318Z,34.38
2024-02-22T00:30:54.413Z,34.38
2024-02-22T00:31:54.484Z,34.38
2024-02-22T00:32:54.507Z,34.40
2024-02-22T00:33:54.586Z,34.39
2024-02-22T00:34:54.658Z,34.40
2024-02-22T00:35:54.649Z,34.38
2024-02-22T00:36:54.709Z,34.39
2024-02-22T00:37:54.822Z,34.39
2024-02-22T00:38:54.836Z,34.40
2024-02-22T00:39:54.903Z,34.40
2024-02-22T00:40:55.033Z,34.42
2024-02-22T00:41:55.017Z,34.40
2024-02-22T00:42:55.084Z,34.39
2024-02-22T00:43:55.215Z,34.39
2024-02-22T00:44:55.175Z,34.41
2024-02-22T00:45:55.252Z,34.42
2024-02-22T00:46:55.504Z,34.40
2024-02-22T00:47:55.436Z,34.39
2024-02-22T00:48:55.444Z,34.40
2024-02-22T00:49:55.533Z,34.40
2024-02-22T00:50:55.606Z,34.39
2024-02-22T00:51:55.599Z,34.40
2024-02-22T00:52:55.737Z,34.39
2024-02-22T00:53:55.737Z,34.42
2024-02-22T00:54:55.808Z,34.43
2024-02-22T00:55:55.889Z,34.43
2024-02-22T00:56:55.909Z,34.43
2024-02-22T00:57:56.002Z,34.43
2024-02-22T00:58:56.074Z,34.44
2024-02-22T00:59:56.123Z,34.43
2024-02-22T01:00:56.233Z,34.44
2024-02-22T01:01:56.266Z,34.44
2024-02-22T01:02:56.310Z,34.42
2024-02-22T01:03:56.445Z,34.43
2024-02-22T01:04:56.457Z,34.43
2024-02-22T01:05:56.551Z,34.43
2024-02-22T01:06:56.585Z,34.45
2024-02-22T01:07:56.737Z,34.45
2024-02-22T01:08:56.713Z,34.45
2024-02-22T01:09:56.772Z,34.43
2024-02-22T01:10:56.877Z,34.46
2024-02-22T01:11:56.958Z,34.43
2024-02-22T01:12:56.959Z,34.46
2024-02-22T01:13:57.044Z,34.43
2024-02-22T01:14:57.066Z,34.46
2024-02-22T01:15:57.201Z,34.46
2024-02-22T01:16:57.267Z,34.45
2024-02-22T01:17:57.268Z,34.46
2024-02-22T01:18:57.382Z,34.45
2024-02-22T01:19:57.553Z,34.46
2024-02-22T01:20:57.482Z,34.46
2024-02-22T01:21:57.552Z,34.47
2024-02-22T01:22:57.653Z,34.47
2024-02-22T01:23:57.666Z,34.47
2024-02-22T01:24:57.714Z,34.49
2024-02-22T01:25:57.860Z,34.47
2024-02-22T01:26:57.850Z,34.48
2024-02-22T01:27:57.909Z,34.48
2024-02-22T01:28:58.060Z,34.49
2024-02-22T01:29:58.063Z,34.47
2024-02-22T01:30:58.146Z,34.47
2024-02-22T01:31:58.228Z,34.48
2024-02-22T01:32:58.330Z,34.49
2024-02-22T01:33:58.356Z,34.50
2024-02-22T01:34:58.404Z,34.49
2024-02-22T01:35:58.450Z,34.47
2024-02-22T01:36:58.558Z,34.47
2024-02-22T01:37:58.613Z,34.49
2024-02-22T01:38:58.671Z,34.48
2024-02-22T01:39:58.724Z,34.50
2024-02-22T01:40:59.169Z,34.48
2024-02-22T01:41:58.862Z,34.47
2024-02-22T01:42:58.916Z,34.49
2024-02-22T01:43:59.061Z,34.49
2024-02-22T01:44:59.044Z,34.48
2024-02-22T01:45:59.112Z,34.49
2024-02-22T01:46:59.219Z,34.49
2024-02-22T01:47:59.304Z,34.51
2024-02-22T01:48:59.372Z,34.50
2024-02-22T01:49:59.428Z,34.49
2024-02-22T01:50:59.446Z,34.49
2024-02-22T01:51:59.602Z,34.51
2024-02-22T01:52:59.631Z,34.50
2024-02-22T01:53:59.670Z,34.50
2024-02-22T01:54:59.776Z,34.52
2024-02-22T01:55:59.999Z,34.52
2024-02-22T01:56:59.851Z,34.50
2024-02-22T01:57:59.950Z,34.48
2024-02-22T01:59:00.052Z,34.48
2024-02-22T02:00:00.058Z,34.50
2024-02-22T02:01:00.153Z,34.48
2024-02-22T02:02:00.323Z,34.50
2024-02-22T02:03:00.242Z,34.50
2024-02-22T02:04:00.367Z,34.50
2024-02-22T02:05:00.441Z,34.51
2024-02-22T02:06:00.469Z,34.49
2024-02-22T02:07:00.523Z,34.49
2024-02-22T02:08:00.597Z,34.50
2024-02-22T02:09:00.626Z,34.51
2024-02-22T02:10:00.695Z,34.51
2024-02-22T02:11:00.887Z,34.51
2024-02-22T02:12:00.893Z,34.51
2024-02-22T02:13:00.861Z,34.52
2024-02-22T02:14:00.995Z,34.52
2024-02-22T02:15:01.003Z,34.51
2024-02-22T02:16:01.076Z,34.51
2024-02-22T02:17:01.156Z,34.49
2024-02-22T02:18:01.216Z,34.52
2024-02-22T02:19:01.313Z,34.50
2024-02-22T02:20:01.306Z,34.51
2024-02-22T02:21:01.385Z,34.51
2024-02-22T02:22:01.419Z,34.52
2024-02-22T02:23:01.552Z,34.54
2024-02-22T02:24:01.550Z,34.52
2024-02-22T02:25:01.636Z,34.53
2024-02-22T02:26:01.748Z,34.51
2024-02-22T02:27:01.733Z,34.53
2024-02-22T02:28:01.819Z,34.53
2024-02-22T02:29:01.943Z,34.54
2024-02-22T02:30:01.913Z,34.52
2024-02-22T02:31:01.985Z,34.54
2024-02-22T02:32:02.121Z,34.55
2024-02-22T02:33:02.163Z,34.53
2024-02-22T02:34:02.256Z,34.51
2024-02-22T02:35:02.322Z,34.54
2024-02-22T02:36:02.321Z,34.56
2024-02-22T02:37:02.370Z,34.53
2024-02-22T02:38:02.472Z,34.56
2024-02-22T02:39:02.493Z,34.56
2024-02-22T02:40:02.589Z,34.56
2024-02-22T02:41:02.694Z,34.54
2024-02-22T02:42:02.728Z,34.55
2024-02-22T02:43:02.742Z,34.56
2024-02-22T02:44:02.932Z,34.55
2024-02-22T02:45:03.018Z,34.54
2024-02-22T02:46:03.026Z,34.54
2024-02-22T02:47:03.127Z,34.55
2024-02-22T02:48:03.227Z,34.52
2024-02-22T02:49:03.260Z,34.56
2024-02-22T02:50:03.279Z,34.56
2024-02-22T02:51:03.274Z,34.56
2024-02-22T02:52:03.346Z,34.56
2024-02-22T02:53:03.505Z,34.54
2024-02-22T02:54:03.472Z,34.55
2024-02-22T02:55:03.522Z,34.54
2024-02-22T02:56:03.613Z,34.56
2024-02-22T02:57:03.657Z,34.54
2024-02-22T02:58:03.719Z,34.55
2024-02-22T02:59:03.815Z,34.57
2024-02-22T03:00:03.852Z,34.55
2024-02-22T03:01:03.943Z,34.59
2024-02-22T03:02:04.021Z,34.57
2024-02-22T03:03:04.116Z,34.57
2024-02-22T03:04:04.125Z,34.56
2024-02-22T03:05:04.221Z,34.57
2024-02-22T03:06:04.400Z,34.57
2024-02-22T03:07:04.293Z,34.56
2024-02-22T03:08:04.368Z,34.57
2024-02-22T03:09:04.417Z,34.56
2024-02-22T03:10:04.477Z,34.56
2024-02-22T03:11:04.765Z,34.59
2024-02-22T03:12:04.706Z,34.58
2024-02-22T03:13:04.676Z,34.56
2024-02-22T03:14:04.870Z,34.58
2024-02-22T03:15:04.810Z,34.59
2024-02-22T03:16:04.871Z,34.58
2024-02-22T03:17:05.005Z,34.58
2024-02-22T03:18:05.081Z,34.60
2024-02-22T03:19:05.101Z,34.59
2024-02-22T03:20:05.184Z,34.60
2024-02-22T03:21:05.202Z,34.59
2024-02-22T03:22:05.261Z,34.59
2024-02-22T03:23:05.399Z,34.61
2024-02-22T03:24:05.391Z,34.59
2024-02-22T03:25:05.467Z,34.59
2024-02-22T03:26:05.542Z,34.59
2024-02-22T03:27:05.589Z,34.58
2024-02-22T03:28:05.650Z,34.60
2024-02-22T03:29:05.722Z,34.60
2024-02-22T03:30:05.776Z,34.60
2024-02-22T03:31:05.861Z,34.61
2024-02-22T03:32:05.910Z,34.59
2024-02-22T03:33:06.013Z,34.61
2024-02-22T03:34:06.081Z,34.60
2024-02-22T03:35:06.275Z,34.62
2024-02-22T03:36:06.150Z,34.61
2024-02-22T03:37:06.245Z,34.63
2024-02-22T03:38:06.313Z,34.60
2024-02-22T03:39:06.412Z,34.61
2024-02-22T03:40:06.441Z,34.62
2024-02-22T03:41:06.523Z,34.63
2024-02-22T03:42:06.566Z,34.60
2024-02-22T03:43:06.644Z,34.61
2024-02-22T03:44:06.730Z,34.62
2024-02-22T03:45:06.756Z,34.62
2024-02-22T03:46:06.830Z,34.64
2024-02-22T03:47:06.942Z,34.65
2024-02-22T03:48:07.078Z,34.65
2024-02-22T03:49:07.069Z,34.65
2024-02-22T03:50:07.229Z,34.63
2024-02-22T03:51:07.169Z,34.64
2024-02-22T03:52:07.246Z,34.64
2024-02-22T03:53:07.349Z,34.63
2024-02-22T03:54:07.359Z,34.62
2024-02-22T03:55:07.459Z,34.63
2024-02-22T03:56:07.548Z,34.63
2024-02-22T03:57:07.577Z,34.63
2024-02-22T03:58:08.096Z,34.64
2024-02-22T03:59:07.833Z,34.62
2024-02-22T04:00:07.906Z,34.64
2024-02-22T04:01:07.933Z,34.64
2024-02-22T04:02:07.927Z,34.63
2024-02-22T04:03:07.970Z,34.63
2024-02-22T04:04:08.084Z,34.63
2024-02-22T04:05:08.143Z,34.64
2024-02-22T04:06:08.195Z,34.64
2024-02-22T04:07:08.221Z,34.65
2024-02-22T04:08:08.297Z,34.64
2024-02-22T04:09:08.355Z,34.63
2024-02-22T04:10:08.398Z,34.64
2024-02-22T04:11:08.561Z,34.64
2024-02-22T04:12:08.591Z,34.63
2024-02-22T04:13:08.601Z,34.64
2024-02-22T04:14:08.759Z,34.64
2024-02-22T04:15:08.724Z,34.65
2024-02-22T04:16:08.773Z,34.66
2024-02-22T04:17:08.909Z,34.63
2024-02-22T04:18:09.011Z,34.66
2024-02-22T04:19:19.937Z,34.69
2024-02-22T04:20:16.290Z,34.68
2024-02-22T04:21:16.198Z,34.68
2024-02-22T04:22:16.194Z,34.66
2024-02-22T04:23:16.274Z,34.65
2024-02-22T04:24:16.197Z,34.66
2024-02-22T04:25:16.238Z,34.65
2024-02-22T04:26:16.270Z,34.64
2024-02-22T04:27:16.202Z,34.64
2024-02-22T04:28:16.209Z,34.66
2024-02-22T04:29:16.368Z,34.64
2024-02-22T04:30:16.210Z,34.63
2024-02-22T04:31:16.208Z,34.63
2024-02-22T04:32:16.262Z,34.61
2024-02-22T04:33:16.318Z,34.62
2024-02-22T04:34:16.270Z,34.61
2024-02-22T04:35:16.375Z,34.59
2024-02-22T04:36:16.233Z,34.59
2024-02-22T04:37:16.232Z,34.60
2024-02-22T04:38:16.349Z,34.58
2024-02-22T04:39:16.222Z,34.59
2024-02-22T04:40:16.242Z,34.59
2024-02-22T04:41:16.267Z,34.56
2024-02-22T04:42:16.226Z,34.59
2024-02-22T04:43:16.229Z,34.54
2024-02-22T04:44:16.294Z,34.56
2024-02-22T04:45:16.298Z,34.56
2024-02-22T04:46:16.352Z,34.56
2024-02-22T04:47:16.475Z,34.57
2024-02-22T04:48:16.551Z,34.57
2024-02-22T04:49:16.582Z,34.57
2024-02-22T04:50:16.662Z,34.57
2024-02-22T04:51:16.659Z,34.58
2024-02-22T04:52:16.657Z,34.54
2024-02-22T04:53:16.842Z,34.56
2024-02-22T04:54:16.782Z,34.55
2024-02-22T04:55:16.830Z,34.54
2024-02-22T04:56:16.956Z,34.56
2024-02-22T04:57:16.954Z,34.55
2024-02-22T04:58:16.989Z,34.54
2024-02-22T04:59:17.076Z,34.52
2024-02-22T05:00:17.112Z,34.53
2024-02-22T05:01:17.190Z,34.54
2024-02-22T05:02:17.259Z,34.56
2024-02-22T05:03:17.319Z,34.55
2024-02-22T05:04:17.370Z,34.53
2024-02-22T05:05:17.409Z,34.54
2024-02-22T05:06:17.471Z,34.55
2024-02-22T05:07:17.521Z,34.57
2024-02-22T05:08:17.668Z,34.56
2024-02-22T05:09:17.617Z,34.54
2024-02-22T05:10:17.662Z,34.56
2024-02-22T05:11:17.773Z,34.55
2024-02-22T05:12:17.756Z,34.55
2024-02-22T05:13:17.801Z,34.54
2024-02-22T05:14:17.966Z,34.54
2024-02-22T05:15:17.922Z,34.54
2024-02-22T05:16:17.974Z,34.54
2024-02-22T05:17:18.019Z,34.54
2024-02-22T05:18:18.102Z,34.54
2024-02-22T05:19:18.138Z,34.55
2024-02-22T05:20:18.232Z,34.54
2024-02-22T05:21:18.208Z,34.53
2024-02-22T05:22:18.242Z,34.53
2024-02-22T05:23:18.317Z,34.55
2024-02-22T05:24:18.338Z,34.53
2024-02-22T05:25:18.411Z,34.54
2024-02-22T05:26:18.517Z,34.55
2024-02-22T05:27:18.510Z,34.54
2024-02-22T05:28:18.542Z,34.54
2024-02-22T05:29:18.645Z,34.54
2024-02-22T05:30:18.637Z,34.55
2024-02-22T05:31:18.674Z,34.52
2024-02-22T05:32:18.854Z,34.54
2024-02-22T05:33:18.871Z,34.53
2024-02-22T05:34:18.876Z,34.53
2024-02-22T05:35:18.935Z,34.52
2024-02-22T05:36:18.873Z,34.54
2024-02-22T05:37:18.930Z,34.54
2024-02-22T05:38:19.040Z,34.54
2024-02-22T05:39:19.018Z,34.55
2024-02-22T05:40:19.055Z,34.54
2024-02-22T05:41:19.306Z,34.55
2024-02-22T05:42:19.153Z,34.57
2024-02-22T05:43:19.196Z,34.55
2024-02-22T05:44:19.364Z,34.58
2024-02-22T05:45:19.289Z,34.56
2024-02-22T05:46:19.356Z,34.57
2024-02-22T05:47:19.435Z,34.56
2024-02-22T05:48:19.573Z,34.56
2024-02-22T05:49:19.545Z,34.59
2024-02-22T05:50:19.652Z,34.58
2024-02-22T05:51:19.596Z,34.56
2024-02-22T05:52:19.846Z,34.59
2024-02-22T05:53:19.746Z,34.59
2024-02-22T05:54:19.736Z,34.58
2024-02-22T05:55:19.787Z,34.59
2024-02-22T05:56:19.867Z,34.58
2024-02-22T05:57:19.882Z,34.60
2024-02-22T05:58:19.948Z,34.58
2024-02-22T05:59:20.046Z,34.58
2024-02-22T06:00:20.028Z,34.59
2024-02-22T06:01:20.176Z,34.57
2024-02-22T06:02:20.166Z,34.58
2024-02-22T06:03:20.169Z,34.59
2024-02-22T06:04:20.252Z,34.58
2024-02-22T06:05:20.342Z,34.57
2024-02-22T06:06:20.342Z,34.58
2024-02-22T06:07:20.408Z,34.60
2024-02-22T06:08:20.470Z,34.59
2024-02-22T06:09:20.438Z,34.59
2024-02-22T06:10:20.494Z,34.57
2024-02-22T06:11:20.714Z,34.58
2024-02-22T06:12:20.641Z,34.58
2024-02-22T06:13:20.627Z,34.58
2024-02-22T06:14:20.726Z,34.59
2024-02-22T06:15:20.729Z,34.59
2024-02-22T06:16:20.798Z,34.58
2024-02-22T06:17:20.913Z,34.58
2024-02-22T06:18:20.985Z,34.59
2024-02-22T06:19:20.999Z,34.58
2024-02-22T06:20:21.084Z,34.58
2024-02-22T06:21:21.014Z,34.57
2024-02-22T06:22:21.364Z,34.58
2024-02-22T06:23:21.180Z,34.57
2024-02-22T06:24:21.120Z,34.57
2024-02-22T06:25:21.265Z,34.57
2024-02-22T06:26:21.331Z,34.58
2024-02-22T06:27:21.265Z,34.56
2024-02-22T06:28:21.318Z,34.56
2024-02-22T06:29:21.470Z,34.55
2024-02-22T06:30:21.409Z,34.55
2024-02-22T06:31:21.904Z,34.55
2024-02-22T06:32:21.523Z,34.50
2024-02-22T06:33:21.616Z,34.42
2024-02-22T06:34:21.643Z,33.73
2024-02-22T06:35:21.775Z,33.80
2024-02-22T06:36:21.794Z,34.12
2024-02-22T06:37:23.069Z,34.26
2024-02-22T06:38:21.804Z,34.51
2024-02-22T06:39:21.764Z,34.70
2024-02-22T06:40:21.750Z,34.73
2024-02-22T06:41:21.853Z,34.63
2024-02-22T06:42:21.893Z,34.76
2024-02-22T06:43:21.752Z,34.82
2024-02-22T06:44:21.894Z,34.86
2024-02-22T06:45:21.753Z,35.05
2024-02-22T06:46:21.796Z,35.48
2024-02-22T06:47:21.759Z,35.42
2024-02-22T06:48:21.900Z,35.37
2024-02-22T06:49:21.815Z,35.31
2024-02-22T06:50:21.877Z,35.58
2024-02-22T06:51:21.770Z,35.77
2024-02-22T06:52:21.851Z,36.09
2024-02-22T06:53:21.795Z,36.15
2024-02-22T06:54:21.773Z,36.20
2024-02-22T06:55:21.770Z,36.42
2024-02-22T06:56:21.835Z,36.84
2024-02-22T06:57:21.765Z,36.95
2024-02-22T06:58:21.773Z,37.33
2024-02-22T06:59:22.080Z,37.17
2024-02-22T07:00:21.838Z,37.37
2024-02-22T07:01:21.837Z,37.79
2024-02-22T07:02:21.855Z,37.80
2024-02-22T07:03:21.841Z,37.93
2024-02-22T07:04:21.931Z,38.15
2024-02-22T07:05:21.870Z,38.18
2024-02-22T07:06:21.903Z,38.23
2024-02-22T07:07:21.805Z,38.40
2024-02-22T07:08:21.871Z,38.48
2024-02-22T07:09:21.801Z,38.68
2024-02-22T07:10:21.885Z,38.72
2024-02-22T07:11:22.053Z,38.76
2024-02-22T07:12:21.831Z,38.81
2024-02-22T07:13:22.016Z,38.98
2024-02-22T07:14:21.860Z,39.26
2024-02-22T07:15:21.827Z,39.22
2024-02-22T07:16:21.849Z,39.42
2024-02-22T07:17:23.349Z,39.66
2024-02-22T07:18:21.940Z,39.60
2024-02-22T07:19:21.933Z,39.93
2024-02-22T07:20:21.980Z,39.97
2024-02-22T07:21:22.040Z,39.98
2024-02-22T07:22:22.875Z,40.08
2024-02-22T07:23:22.182Z,40.24
2024-02-22T07:24:22.138Z,40.34
2024-02-22T07:25:22.361Z,40.47
2024-02-22T07:26:22.256Z,40.66
2024-02-22T07:27:22.306Z,40.69
2024-02-22T07:28:22.339Z,40.73
2024-02-22T07:29:22.444Z,40.88
2024-02-22T07:30:22.420Z,41.02
2024-02-22T07:31:22.484Z,41.03
2024-02-22T07:32:22.668Z,41.28
2024-02-22T07:33:22.705Z,41.43
2024-02-22T07:34:22.763Z,41.31
2024-02-22T07:35:22.706Z,41.48
2024-02-22T07:36:22.716Z,41.64
2024-02-22T07:37:22.771Z,42.04
2024-02-22T07:38:22.840Z,41.91
2024-02-22T07:39:22.837Z,41.79
2024-02-22T07:40:22.843Z,41.73
2024-02-22T07:41:22.889Z,40.46
2024-02-22T07:42:23.402Z,40.28
2024-02-22T07:43:22.966Z,40.55
2024-02-22T07:44:24.945Z,38.54
2024-02-22T07:45:23.030Z,38.97
2024-02-22T07:46:23.076Z,39.38
2024-02-22T07:47:23.500Z,39.40
2024-02-22T07:48:23.283Z,39.48
2024-02-22T07:49:23.285Z,39.24
2024-02-22T07:50:23.345Z,38.78
2024-02-22T07:51:23.377Z,38.58
2024-02-22T07:52:23.907Z,38.49
2024-02-22T07:53:23.521Z,38.43
2024-02-22T07:54:23.549Z,38.41
2024-02-22T07:55:23.604Z,38.33
2024-02-22T07:56:23.704Z,38.19
2024-02-22T07:57:23.696Z,37.97
2024-02-22T07:58:23.695Z,37.90
2024-02-22T07:59:23.795Z,37.93
2024-02-22T08:00:23.777Z,37.81
2024-02-22T08:01:23.788Z,37.89
2024-02-22T08:02:23.785Z,37.79
2024-02-22T08:03:23.735Z,37.64
2024-02-22T08:04:23.805Z,37.20
2024-02-22T08:05:23.926Z,37.52
2024-02-22T08:06:23.812Z,37.22
2024-02-22T08:07:23.782Z,37.33
2024-02-22T08:08:23.837Z,37.08
2024-02-22T08:09:23.807Z,37.05
2024-02-22T08:10:23.835Z,36.97
2024-02-22T08:11:23.939Z,37.11
2024-02-22T08:12:24.129Z,36.95
2024-02-22T08:13:23.890Z,36.60
2024-02-22T08:14:23.928Z,36.62
2024-02-22T08:15:23.932Z,36.69
2024-02-22T08:16:24.011Z,35.86
2024-02-22T08:17:24.008Z,36.04
2024-02-22T08:18:24.104Z,35.79
2024-02-22T08:19:24.064Z,36.14
2024-02-22T08:20:24.296Z,35.97
2024-02-22T08:21:24.162Z,36.12
2024-02-22T08:22:24.416Z,35.88
2024-02-22T08:23:24.153Z,35.86
2024-02-22T08:24:24.150Z,35.59
2024-02-22T08:25:25.907Z,35.49
2024-02-22T08:26:24.438Z,35.59
2024-02-22T08:27:24.412Z,35.73
2024-02-22T08:28:24.431Z,34.88
2024-02-22T08:29:24.203Z,34.93
2024-02-22T08:30:24.197Z,35.07
2024-02-22T08:31:24.173Z,35.30
2024-02-22T08:32:24.491Z,34.79
2024-02-22T08:33:24.297Z,34.83
2024-02-22T08:34:24.303Z,34.06
2024-02-22T08:35:24.304Z,34.90
2024-02-22T08:36:24.182Z,35.02
2024-02-22T08:37:24.192Z,35.01
2024-02-22T08:38:24.506Z,35.32
2024-02-22T08:39:24.269Z,35.49
2024-02-22T08:40:34.762Z,35.52
2024-02-22T08:41:25.239Z,35.64
2024-02-22T08:42:24.194Z,35.63
2024-02-22T08:43:24.413Z,35.76
2024-02-22T08:44:24.268Z,35.82
2024-02-22T08:45:24.228Z,35.90
2024-02-22T08:46:24.744Z,36.12
2024-02-22T08:47:32.551Z,36.25
2024-02-22T08:48:32.576Z,36.28
2024-02-22T08:49:32.469Z,36.41
2024-02-22T08:50:32.419Z,36.42
2024-02-22T08:51:32.335Z,36.49
2024-02-22T08:52:32.416Z,36.51
2024-02-22T08:53:32.390Z,36.58
2024-02-22T08:54:32.342Z,36.61
2024-02-22T08:55:32.446Z,36.69
2024-02-22T08:56:32.447Z,36.81
2024-02-22T08:57:39.337Z,36.80
2024-02-22T08:58:33.482Z,36.93
2024-02-22T08:59:32.454Z,37.00
2024-02-22T09:00:32.422Z,37.17
2024-02-22T09:01:32.395Z,37.18
2024-02-22T09:02:32.337Z,37.19
2024-02-22T09:03:32.459Z,37.22
2024-02-22T09:04:32.438Z,37.35
2024-02-22T09:05:32.418Z,37.34
2024-02-22T09:06:32.479Z,37.42
2024-02-22T09:07:32.448Z,37.42
2024-02-22T09:08:32.400Z,37.71
2024-02-22T09:09:32.346Z,37.55
2024-02-22T09:10:32.348Z,37.38
2024-02-22T09:11:32.454Z,37.44
2024-02-22T09:12:32.476Z,37.52
2024-02-22T09:13:32.548Z,37.39
2024-02-22T09:14:32.444Z,37.36
2024-02-22T09:15:32.462Z,37.21
2024-02-22T09:16:32.551Z,37.05
2024-02-22T09:17:32.538Z,36.90
2024-02-22T09:18:32.583Z,36.35
2024-02-22T09:19:32.596Z,36.54
2024-02-22T09:20:32.597Z,36.49
2024-02-22T09:21:32.570Z,36.28
2024-02-22T09:22:33.068Z,36.19
2024-02-22T09:23:32.746Z,36.14
2024-02-22T09:24:32.746Z,36.47
2024-02-22T09:25:32.927Z,36.47
2024-02-22T09:26:32.845Z,34.98
2024-02-22T09:27:32.879Z,35.72
2024-02-22T09:28:33.478Z,36.02
2024-02-22T09:29:33.452Z,36.21
2024-02-22T09:30:33.016Z,36.15
2024-02-22T09:31:33.125Z,35.79
2024-02-22T09:32:33.471Z,35.55
2024-02-22T09:33:33.232Z,35.44
2024-02-22T09:34:33.359Z,35.33
2024-02-22T09:35:33.334Z,35.06
2024-02-22T09:36:33.378Z,35.06
2024-02-22T09:37:33.553Z,34.18
2024-02-22T09:38:33.475Z,33.87
2024-02-22T09:39:33.982Z,33.87
2024-02-22T09:40:33.422Z,33.73
2024-02-22T09:41:33.431Z,34.33
2024-02-22T09:42:33.453Z,34.16
2024-02-22T09:43:33.482Z,34.17
2024-02-22T09:44:33.479Z,34.10
2024-02-22T09:45:33.513Z,34.10
2024-02-22T09:46:33.615Z,34.10
2024-02-22T09:47:34.132Z,34.19
2024-02-22T09:48:33.871Z,34.22
2024-02-22T09:49:33.894Z,34.25
2024-02-22T09:50:33.947Z,34.35
2024-02-22T09:51:33.910Z,34.59
2024-02-22T09:52:33.998Z,34.72
2024-02-22T09:53:34.133Z,34.67
2024-02-22T09:54:34.119Z,34.63
2024-02-22T09:55:34.192Z,34.98
2024-02-22T09:56:34.184Z,35.20
2024-02-22T09:57:34.227Z,34.33
2024-02-22T09:58:34.336Z,33.90
2024-02-22T09:59:34.317Z,34.56
2024-02-22T10:00:34.357Z,34.77
2024-02-22T10:01:34.445Z,34.72
2024-02-22T10:02:34.457Z,35.20
2024-02-22T10:03:34.485Z,35.11
2024-02-22T10:04:34.521Z,35.57
2024-02-22T10:05:34.611Z,35.88
2024-02-22T10:06:34.772Z,36.25
2024-02-22T10:07:34.716Z,36.29
2024-02-22T10:08:34.713Z,36.78
2024-02-22T10:09:34.721Z,36.88
2024-02-22T10:10:34.825Z,37.08
2024-02-22T10:11:35.007Z,37.23
2024-02-22T10:12:36.323Z,37.22
2024-02-22T10:13:35.238Z,37.30
2024-02-22T10:14:35.113Z,37.87
2024-02-22T10:15:35.152Z,37.80
2024-02-22T10:16:35.260Z,38.17
2024-02-22T10:17:35.348Z,38.26
2024-02-22T10:18:35.405Z,38.33
2024-02-22T10:19:35.472Z,38.58
2024-02-22T10:20:35.805Z,38.73
2024-02-22T10:21:35.515Z,38.58
2024-02-22T10:22:35.621Z,38.84
2024-02-22T10:23:35.627Z,39.19
2024-02-22T10:24:35.686Z,38.97
2024-02-22T10:25:35.942Z,39.20
2024-02-22T10:26:35.896Z,39.41
2024-02-22T10:27:35.898Z,39.64
2024-02-22T10:28:35.969Z,39.60
2024-02-22T10:29:35.986Z,40.04
2024-02-22T10:30:36.077Z,39.79
2024-02-22T10:31:36.175Z,41.11
2024-02-22T10:32:36.278Z,41.20
2024-02-22T10:33:36.385Z,41.22
2024-02-22T10:34:36.405Z,42.18
2024-02-22T10:35:36.444Z,41.60
2024-02-22T10:36:36.447Z,40.69
2024-02-22T10:37:36.579Z,40.61
2024-02-22T10:38:36.470Z,40.42
2024-02-22T10:39:36.525Z,40.45
2024-02-22T10:40:36.892Z,40.23
2024-02-22T10:41:36.572Z,40.63
2024-02-22T10:42:37.002Z,40.20
2024-02-22T10:43:36.805Z,40.51
2024-02-22T10:44:36.805Z,40.81
2024-02-22T10:45:36.767Z,40.54
2024-02-22T10:46:36.979Z,40.72
2024-02-22T10:47:37.051Z,41.16
2024-02-22T10:48:37.009Z,40.73
2024-02-22T10:49:36.943Z,41.41
2024-02-22T10:50:37.003Z,42.02
2024-02-22T10:51:37.072Z,42.05
2024-02-22T10:52:37.515Z,41.95
2024-02-22T10:53:37.037Z,42.29
2024-02-22T10:54:37.094Z,39.62
2024-02-22T10:55:37.189Z,40.26
2024-02-22T10:56:37.291Z,39.35
2024-02-22T10:57:37.989Z,39.74
2024-02-22T10:58:37.365Z,39.97
2024-02-22T10:59:37.433Z,36.20
2024-02-22T11:00:37.432Z,35.77
2024-02-22T11:01:37.434Z,35.61
2024-02-22T11:02:37.458Z,34.59
2024-02-22T11:03:37.519Z,34.81
2024-02-22T11:04:37.564Z,35.67
2024-02-22T11:05:37.559Z,34.68
2024-02-22T11:06:37.586Z,34.50
2024-02-22T11:07:37.621Z,33.24
2024-02-22T11:08:37.598Z,32.93
2024-02-22T11:09:37.643Z,33.21
2024-02-22T11:10:37.684Z,33.74
2024-02-22T11:11:37.881Z,33.06
2024-02-22T11:12:37.776Z,33.83
2024-02-22T11:13:38.022Z,32.60
2024-02-22T11:14:37.870Z,31.86
2024-02-22T11:15:37.914Z,31.25
2024-02-22T11:16:38.015Z,30.11
2024-02-22T11:17:38.039Z,29.49
2024-02-22T11:18:38.101Z,29.24
2024-02-22T11:19:38.182Z,28.96
2024-02-22T11:20:38.151Z,28.62
2024-02-22T11:21:38.193Z,29.98
2024-02-22T11:22:38.352Z,29.38
2024-02-22T11:23:39.092Z,30.32
2024-02-22T11:24:38.377Z,30.81
2024-02-22T11:25:38.427Z,31.20
2024-02-22T11:26:38.464Z,31.50
2024-02-22T11:27:38.530Z,29.22
2024-02-22T11:28:38.553Z,30.63
2024-02-22T11:29:38.559Z,30.63
2024-02-22T11:30:38.625Z,31.54
2024-02-22T11:31:38.698Z,31.51
2024-02-22T11:32:38.802Z,31.00
2024-02-22T11:33:39.586Z,31.17
2024-02-22T11:34:38.931Z,29.94
2024-02-22T11:35:38.991Z,29.11
2024-02-22T11:36:38.956Z,30.51
2024-02-22T11:37:39.049Z,30.35
2024-02-22T11:38:39.064Z,29.42
2024-02-22T11:39:39.099Z,29.18
2024-02-22T11:40:39.402Z,30.35
2024-02-22T11:41:39.206Z,28.65
2024-02-22T11:42:39.299Z,28.35
2024-02-22T11:43:39.356Z,29.77
2024-02-22T11:44:39.392Z,29.21
2024-02-22T11:45:39.412Z,28.89
2024-02-22T11:46:39.577Z,28.66
2024-02-22T11:47:39.584Z,29.11
2024-02-22T11:48:39.792Z,28.87
2024-02-22T11:49:39.670Z,29.12
2024-02-22T11:50:39.648Z,28.43
2024-02-22T11:51:39.699Z,28.86
2024-02-22T11:52:40.027Z,28.99
2024-02-22T11:53:40.425Z,28.43
2024-02-22T11:54:39.844Z,28.08
2024-02-22T11:55:39.951Z,28.44
2024-02-22T11:56:39.984Z,28.37
2024-02-22T11:57:40.042Z,28.34
2024-02-22T11:58:40.153Z,28.76
2024-02-22T11:59:40.120Z,28.72
2024-02-22T12:00:40.322Z,28.69
2024-02-22T12:01:40.210Z,28.69
2024-02-22T12:02:40.224Z,28.29
2024-02-22T12:03:40.220Z,28.72
2024-02-22T12:04:40.339Z,27.93
2024-02-22T12:05:40.396Z,28.60
2024-02-22T12:06:40.484Z,28.17
2024-02-22T12:07:40.701Z,28.03
2024-02-22T12:08:40.491Z,28.67
2024-02-22T12:09:40.565Z,28.52
2024-02-22T12:10:40.728Z,28.58
2024-02-22T12:11:40.753Z,29.11
2024-02-22T12:12:40.998Z,29.11
2024-02-22T12:13:40.878Z,28.77
2024-02-22T12:14:40.879Z,28.39
2024-02-22T12:15:40.962Z,28.81
2024-02-22T12:16:41.035Z,29.10
2024-02-22T12:17:41.191Z,29.26
2024-02-22T12:18:41.258Z,29.27
2024-02-22T12:19:41.114Z,29.25
2024-02-22T12:20:41.200Z,29.22
2024-02-22T12:21:41.305Z,29.31
2024-02-22T12:22:41.197Z,29.23
2024-02-22T12:23:41.177Z,29.26
2024-02-22T12:24:41.183Z,29.19
2024-02-22T12:25:41.263Z,29.13
2024-02-22T12:26:41.279Z,29.09
2024-02-22T12:27:41.548Z,29.08
2024-02-22T12:28:41.566Z,29.13
2024-02-22T12:29:41.471Z,29.07
2024-02-22T12:30:41.568Z,29.07
2024-02-22T12:31:41.662Z,29.12
2024-02-22T12:32:41.707Z,29.22
2024-02-22T12:33:42.089Z,29.37
2024-02-22T12:34:41.858Z,30.01
2024-02-22T12:35:41.949Z,29.68
2024-02-22T12:36:41.985Z,29.86
2024-02-22T12:37:42.044Z,29.56
2024-02-22T12:38:41.991Z,29.56
2024-02-22T12:39:42.200Z,29.69
2024-02-22T12:40:42.090Z,29.97
2024-02-22T12:41:42.095Z,30.01
2024-02-22T12:42:42.064Z,30.24
2024-02-22T12:43:42.144Z,29.64
2024-02-22T12:44:42.080Z,28.96
2024-02-22T12:45:42.145Z,30.81
2024-02-22T12:46:42.196Z,30.98
2024-02-22T12:47:42.257Z,31.55
2024-02-22T12:48:42.232Z,31.66
2024-02-22T12:49:42.230Z,31.77
2024-02-22T12:50:42.225Z,31.84
2024-02-22T12:51:42.242Z,31.83
2024-02-22T12:52:42.336Z,31.81
2024-02-22T12:53:42.258Z,31.86